Time;durP1;ratioP1;P1;durP2;ratioP2;P2;SDS_P1;SDS_P2;PMS_P1;PMS_P2;Temp;Humidity;BMP_temperature;BMP_pressure;BME280_temperature;BME280_humidity;BME280_pressure;Samples;Min_cycle;Max_cycle;Signal;HPM_P1;HPM_P2
2022/12/06 00:02:10;;;;;;;33.40;21.57;;;4.80;1.00;;;;;;4950899;28;20257;-64
2022/12/06 00:04:36;;;;;;;38.17;21.00;;;4.90;1.00;;;;;;4951328;29;20414;-65
2022/12/06 00:07:02;;;;;;;35.63;21.00;;;4.90;1.00;;;;;;4951354;28;20262;-66
2022/12/06 00:09:29;;;;;;;34.67;22.83;;;4.80;1.00;;;;;;4954531;28;20217;-65
2022/12/06 00:11:56;;;;;;;40.57;21.87;;;4.90;1.00;;;;;;4953485;28;20651;-63
2022/12/06 00:14:23;;;;;;;38.73;21.00;;;4.90;1.00;;;;;;4954754;28;20426;-66
2022/12/06 00:16:50;;;;;;;40.17;22.87;;;4.90;1.00;;;;;;4954902;29;21029;-63
2022/12/06 00:19:18;;;;;;;42.37;22.00;;;4.90;1.00;;;;;;4954835;28;20421;-66
2022/12/06 00:21:46;;;;;;;45.90;21.60;;;5.00;1.00;;;;;;4953838;28;20417;-67
2022/12/06 00:24:14;;;;;;;39.53;22.80;;;4.90;1.00;;;;;;4954591;28;20429;-66
2022/12/06 00:26:42;;;;;;;36.70;22.33;;;4.80;1.00;;;;;;4954032;28;20429;-66
2022/12/06 00:29:12;;;;;;;33.23;19.33;;;4.70;1.00;;;;;;4954756;28;20421;-64
2022/12/06 00:31:37;;;;;;;38.67;22.93;;;4.80;1.00;;;;;;4953789;28;20421;-66
2022/12/06 00:34:03;;;;;;;35.67;21.37;;;4.80;7.40;;;;;;4938068;29;20423;-64
2022/12/06 00:36:35;;;;;;;41.10;22.23;;;4.80;1.00;;;;;;4935201;29;20207;-66
2022/12/06 00:39:04;;;;;;;36.23;21.40;;;4.80;1.70;;;;;;4935209;29;20851;-64
2022/12/06 00:41:30;;;;;;;49.53;23.13;;;4.70;1.00;;;;;;4933858;29;20415;-66
2022/12/06 00:43:56;;;;;;;43.17;21.17;;;4.80;10.60;;;;;;4934932;29;20419;-65
2022/12/06 00:46:24;;;;;;;55.23;24.63;;;4.70;1.00;;;;;;4935277;29;20254;-64
2022/12/06 00:48:51;;;;;;;43.93;22.17;;;4.70;56.70;;;;;;4935021;29;20661;-66
2022/12/06 00:51:17;;;;;;;36.00;19.90;;;4.70;99.90;;;;;;4934421;29;20419;-64
2022/12/06 00:53:44;;;;;;;29.07;18.57;;;4.60;99.90;;;;;;4934958;29;20455;-66
2022/12/06 00:56:10;;;;;;;26.10;17.63;;;4.60;99.90;;;;;;4934423;29;21303;-66
2022/12/06 00:58:36;;;;;;;29.93;17.57;;;4.50;99.90;;;;;;4935055;29;20407;-66
2022/12/06 01:01:26;;;;;;;24.70;16.00;;;4.50;99.90;;;;;;4933634;29;20975;-65
2022/12/06 01:03:54;;;;;;;22.50;15.00;;;4.40;99.90;;;;;;4934925;29;20183;-67
2022/12/06 01:06:24;;;;;;;26.03;14.70;;;4.40;99.90;;;;;;4934936;29;21059;-66
2022/12/06 01:08:50;;;;;;;25.83;16.53;;;4.50;99.90;;;;;;4934695;29;20497;-66
2022/12/06 01:11:17;;;;;;;25.40;15.60;;;4.50;99.90;;;;;;4933870;29;20454;-65
2022/12/06 01:13:43;;;;;;;26.63;16.10;;;4.50;99.90;;;;;;4934271;29;20234;-66
2022/12/06 01:16:11;;;;;;;23.77;15.10;;;4.50;99.90;;;;;;4934377;29;20870;-67
2022/12/06 01:18:38;;;;;;;26.57;16.03;;;4.50;99.90;;;;;;4934704;29;20175;-63
2022/12/06 01:21:23;;;;;;;32.93;18.20;;;4.60;99.90;;;;;;4933324;29;20843;-65
2022/12/06 01:23:49;;;;;;;25.40;16.57;;;4.70;99.90;;;;;;4934754;29;20411;-66
2022/12/06 01:26:21;;;;;;;28.80;15.13;;;4.70;99.90;;;;;;4933862;29;20442;-66
2022/12/06 01:28:47;;;;;;;30.73;16.50;;;4.70;99.90;;;;;;4934137;29;20502;-65
2022/12/06 01:31:14;;;;;;;28.17;18.03;;;4.70;99.90;;;;;;4933602;29;20502;-66
2022/12/06 01:33:40;;;;;;;29.30;16.93;;;4.70;99.90;;;;;;4947218;29;20422;-66
2022/12/06 01:36:06;;;;;;;23.40;14.97;;;4.70;99.90;;;;;;4953045;28;21146;-64
2022/12/06 01:38:32;;;;;;;26.30;16.97;;;4.70;99.90;;;;;;4953612;28;20406;-66
2022/12/06 01:40:57;;;;;;;30.73;14.90;;;4.80;99.90;;;;;;4951812;29;20413;-64
2022/12/06 01:43:35;;;;;;;24.90;14.00;;;4.60;99.90;;;;;;4953294;29;20248;-66
2022/12/06 01:46:25;;;;;;;31.63;17.63;;;4.70;99.90;;;;;;4952904;29;20214;-66
2022/12/06 01:49:19;;;;;;;27.23;16.90;;;4.70;99.90;;;;;;4952937;29;20493;-65
2022/12/06 01:51:50;;;;;;;31.77;18.67;;;4.70;99.90;;;;;;4948842;29;20433;-63
2022/12/06 01:54:18;;;;;;;28.00;17.40;;;4.70;99.90;;;;;;4952951;28;20473;-66
2022/12/06 01:56:45;;;;;;;26.60;15.37;;;4.70;99.90;;;;;;4952397;28;20501;-66
2022/12/06 01:59:11;;;;;;;26.37;16.03;;;4.70;99.90;;;;;;4952910;28;20911;-66
2022/12/06 02:01:38;;;;;;;29.23;14.60;;;4.70;93.10;;;;;;4952015;29;20422;-66
2022/12/06 02:04:04;;;;;;;25.80;16.23;;;4.60;99.90;;;;;;4952875;28;20422;-65
2022/12/06 02:06:31;;;;;;;31.00;16.70;;;4.50;99.90;;;;;;4952575;28;20426;-67
2022/12/06 02:09:04;;;;;;;32.30;18.23;;;4.50;99.90;;;;;;4952637;28;20469;-67
2022/12/06 02:11:29;;;;;;;28.20;16.10;;;4.60;99.90;;;;;;4951633;28;20971;-64
2022/12/06 02:13:55;;;;;;;31.20;16.53;;;4.50;99.90;;;;;;4952387;29;20402;-66
2022/12/06 02:16:27;;;;;;;32.03;16.73;;;4.60;99.90;;;;;;4952529;28;20579;-66
2022/12/06 02:19:09;;;;;;;27.93;17.50;;;4.70;99.90;;;;;;4952480;29;20433;-66
2022/12/06 02:22:16;;;;;;;26.47;16.07;;;4.60;99.90;;;;;;4951972;28;20476;-64
2022/12/06 02:25:18;;;;;;;32.70;17.10;;;4.60;99.90;;;;;;4892923;29;21072;-67
2022/12/06 02:28:18;;;;;;;28.73;15.80;;;4.60;99.90;;;;;;4952534;29;20413;-66
2022/12/06 02:30:57;;;;;;;32.93;15.50;;;4.60;99.90;;;;;;4951592;28;20420;-66
2022/12/06 02:33:50;;;;;;;35.00;16.70;;;4.60;99.90;;;;;;4941921;28;20425;-64
2022/12/06 02:36:25;;;;;;;31.33;17.83;;;4.60;99.90;;;;;;4933726;29;20494;-64
2022/12/06 02:38:56;;;;;;;47.70;19.70;;;4.60;99.90;;;;;;4932954;29;20431;-64
2022/12/06 02:41:27;;;;;;;34.47;17.57;;;4.60;99.90;;;;;;4932484;29;20955;-65
2022/12/06 02:44:02;;;;;;;42.33;20.17;;;4.60;99.90;;;;;;4931967;29;20407;-63
2022/12/06 02:46:32;;;;;;;43.60;19.67;;;4.60;99.90;;;;;;4938098;29;20461;-67
2022/12/06 02:49:01;;;;;;;39.63;20.60;;;4.70;99.90;;;;;;4939543;29;20426;-66
2022/12/06 02:51:29;;;;;;;36.60;18.50;;;4.70;99.90;;;;;;4932957;29;20423;-66
2022/12/06 02:53:58;;;;;;;35.30;17.10;;;4.70;99.90;;;;;;4933679;29;20415;-65
2022/12/06 02:56:24;;;;;;;35.90;18.43;;;4.70;99.90;;;;;;4933420;29;20471;-66
2022/12/06 02:58:50;;;;;;;32.80;18.13;;;4.70;99.90;;;;;;4934150;29;20415;-66
2022/12/06 03:01:40;;;;;;;44.33;18.90;;;4.70;86.30;;;;;;4933179;29;21139;-66
2022/12/06 03:04:33;;;;;;;31.30;18.50;;;4.70;99.90;;;;;;4933786;29;20179;-66
2022/12/06 03:07:14;;;;;;;37.40;18.80;;;4.70;99.90;;;;;;4934114;29;20435;-67
2022/12/06 03:09:48;;;;;;;36.90;18.53;;;4.70;99.90;;;;;;4933791;29;20398;-66
2022/12/06 03:12:24;;;;;;;38.63;18.10;;;4.70;99.90;;;;;;4933480;29;20406;-65
2022/12/06 03:15:10;;;;;;;42.43;19.87;;;4.70;99.90;;;;;;4933426;29;20410;-66
2022/12/06 03:17:43;;;;;;;33.43;17.10;;;4.70;99.90;;;;;;4933455;29;20457;-69
2022/12/06 03:20:31;;;;;;;32.87;18.17;;;4.70;99.90;;;;;;4933870;29;20419;-65
2022/12/06 03:23:02;;;;;;;40.17;19.33;;;4.60;99.90;;;;;;4923134;29;20426;-66
2022/12/06 03:25:29;;;;;;;34.57;19.80;;;4.70;99.90;;;;;;4933607;29;20431;-66
2022/12/06 03:27:56;;;;;;;40.33;18.70;;;4.60;99.90;;;;;;4933879;29;20403;-66
2022/12/06 03:30:22;;;;;;;32.00;18.63;;;4.70;99.90;;;;;;4933660;29;20410;-67
2022/12/06 03:32:49;;;;;;;41.97;18.80;;;4.60;99.90;;;;;;4939941;29;20449;-67
2022/12/06 03:35:24;;;;;;;38.13;19.50;;;4.50;99.90;;;;;;4952890;28;20458;-66
2022/12/06 03:37:56;;;;;;;36.27;20.10;;;4.50;99.90;;;;;;4957610;28;20412;-67
2022/12/06 03:40:29;;;;;;;39.77;21.03;;;4.50;99.90;;;;;;4956273;28;20413;-64
2022/12/06 03:42:55;;;;;;;31.67;17.20;;;4.50;99.90;;;;;;4954057;28;20413;-67
2022/12/06 03:45:51;;;;;;;32.23;17.37;;;4.50;99.90;;;;;;4955090;28;20458;-66
2022/12/06 03:48:31;;;;;;;32.33;19.47;;;4.50;99.90;;;;;;4954894;29;20430;-65
2022/12/06 03:51:02;;;;;;;38.33;20.40;;;4.50;99.90;;;;;;4956094;28;20479;-67
2022/12/06 03:53:28;;;;;;;42.87;20.43;;;4.40;99.90;;;;;;4957082;28;20846;-65
2022/12/06 03:55:53;;;;;;;34.10;18.73;;;4.40;99.90;;;;;;4956093;29;20457;-66
2022/12/06 03:58:19;;;;;;;34.63;19.70;;;4.50;99.90;;;;;;4957697;29;20224;-66
2022/12/06 04:00:45;;;;;;;31.93;18.47;;;4.40;99.90;;;;;;4956561;29;20484;-67
2022/12/06 04:03:11;;;;;;;33.23;19.37;;;4.50;54.70;;;;;;4957910;29;20426;-66
2022/12/06 04:05:37;;;;;;;36.97;19.70;;;4.50;66.00;;;;;;4956881;29;20198;-66
2022/12/06 04:08:03;;;;;;;32.07;18.60;;;4.50;99.90;;;;;;4957292;29;20188;-66
2022/12/06 04:10:28;;;;;;;31.67;17.53;;;4.40;99.90;;;;;;4959147;29;20182;-66
2022/12/06 04:13:00;;;;;;;28.97;18.70;;;4.30;66.00;;;;;;4958056;29;20181;-65
2022/12/06 04:15:37;;;;;;;33.27;18.37;;;4.20;99.90;;;;;;4956513;28;20249;-65
2022/12/06 04:18:13;;;;;;;29.83;17.80;;;4.30;99.90;;;;;;4956686;28;20453;-65
2022/12/06 04:23:34;;;;;;;32.17;19.80;;;4.40;99.90;;;;;;4956325;29;20958;-65
2022/12/06 04:26:00;;;;;;;32.90;19.60;;;4.40;99.90;;;;;;4956290;28;20444;-67
2022/12/06 04:39:24;;;;;;;29.97;18.63;;;4.30;99.90;;;;;;4956234;29;20459;-66
2022/12/06 04:44:34;;;;;;;32.93;18.50;;;4.20;99.90;;;;;;4954736;29;20418;-67
2022/12/06 04:47:00;;;;;;;32.77;18.00;;;4.20;99.90;;;;;;4969228;29;20453;-65
2022/12/06 04:49:26;;;;;;;34.13;17.50;;;4.20;99.90;;;;;;4954483;28;20181;-66
2022/12/06 04:51:53;;;;;;;29.40;17.27;;;4.20;99.90;;;;;;4954385;28;20414;-66
2022/12/06 04:54:20;;;;;;;37.57;20.33;;;4.10;99.90;;;;;;4961172;28;20174;-67
2022/12/06 04:56:45;;;;;;;31.67;19.07;;;4.20;99.90;;;;;;4955780;28;20468;-66
2022/12/06 04:59:11;;;;;;;34.27;18.50;;;4.20;99.90;;;;;;4956425;28;20509;-67
2022/12/06 05:01:37;;;;;;;36.43;20.53;;;4.20;99.90;;;;;;4954679;29;20178;-67
2022/12/06 05:04:02;;;;;;;36.33;18.33;;;4.20;99.90;;;;;;4954965;29;20162;-67
2022/12/06 05:06:28;;;;;;;36.07;18.00;;;4.30;99.90;;;;;;4954749;28;20208;-66
2022/12/06 05:08:54;;;;;;;39.30;19.10;;;4.20;99.90;;;;;;4954677;29;20194;-65
2022/12/06 05:11:20;;;;;;;30.17;16.90;;;4.10;99.90;;;;;;4953349;29;20178;-66
2022/12/06 05:13:45;;;;;;;28.77;15.60;;;4.20;99.90;;;;;;4954796;28;20178;-66
2022/12/06 05:16:11;;;;;;;39.53;16.50;;;4.20;99.90;;;;;;4954430;28;20253;-67
2022/12/06 05:18:37;;;;;;;33.50;16.93;;;4.20;99.90;;;;;;4954729;28;20572;-67
2022/12/06 05:21:04;;;;;;;28.60;15.30;;;4.10;99.90;;;;;;4953430;29;20166;-67
2022/12/06 05:23:31;;;;;;;29.50;16.43;;;4.10;99.90;;;;;;4953527;29;20286;-67
2022/12/06 05:26:01;;;;;;;31.90;16.37;;;4.00;99.90;;;;;;4953899;29;20437;-68
2022/12/06 05:28:27;;;;;;;31.27;16.03;;;4.00;99.90;;;;;;4954374;28;20509;-65
2022/12/06 05:30:53;;;;;;;30.43;15.67;;;4.00;99.90;;;;;;4953670;28;20565;-67
2022/12/06 05:33:18;;;;;;;27.30;14.50;;;4.00;99.90;;;;;;4944500;29;20845;-65
2022/12/06 05:35:44;;;;;;;26.27;14.23;;;4.00;99.90;;;;;;4934617;29;20723;-64
2022/12/06 05:38:10;;;;;;;23.97;13.00;;;4.00;99.90;;;;;;4934362;29;20214;-63
2022/12/06 05:40:38;;;;;;;26.57;13.20;;;3.90;73.40;;;;;;4932933;29;20552;-66
2022/12/06 05:43:03;;;;;;;27.27;13.50;;;3.70;99.90;;;;;;4934343;29;20179;-64
2022/12/06 05:45:29;;;;;;;22.93;13.60;;;3.70;99.90;;;;;;4932663;29;20477;-63
2022/12/06 05:47:55;;;;;;;28.03;13.63;;;3.80;99.90;;;;;;4934534;29;20179;-65
2022/12/06 05:50:20;;;;;;;20.53;13.50;;;4.00;1.00;;;;;;4933574;29;20179;-65
2022/12/06 05:52:46;;;;;;;26.40;14.30;;;4.00;15.40;;;;;;4931960;29;20632;-64
2022/12/06 05:55:12;;;;;;;21.83;13.57;;;3.90;38.60;;;;;;4949226;29;20186;-62
2022/12/06 05:57:37;;;;;;;34.90;14.73;;;4.00;1.00;;;;;;4953141;29;20249;-65
2022/12/06 06:00:04;;;;;;;30.00;15.57;;;3.90;1.00;;;;;;4944803;28;20217;-63
2022/12/06 06:02:30;;;;;;;33.27;16.97;;;3.90;1.00;;;;;;4944650;29;20178;-65
2022/12/06 06:04:55;;;;;;;37.90;16.63;;;3.90;89.80;;;;;;4952842;28;20481;-65
2022/12/06 06:07:21;;;;;;;42.30;17.43;;;4.00;99.90;;;;;;4944621;28;20194;-64
2022/12/06 06:09:47;;;;;;;41.83;16.23;;;4.00;1.00;;;;;;4935900;29;20202;-62
2022/12/06 06:12:12;;;;;;;51.30;18.00;;;4.00;1.00;;;;;;4937934;29;20183;-66
2022/12/06 06:14:38;;;;;;;27.37;15.27;;;4.00;11.90;;;;;;4951017;28;20273;-66
2022/12/06 06:17:04;;;;;;;30.33;17.20;;;4.00;46.40;;;;;;4952636;29;20222;-65
2022/12/06 06:19:30;;;;;;;30.20;15.87;;;4.10;46.10;;;;;;4953042;29;20489;-66
2022/12/06 06:21:55;;;;;;;31.90;17.07;;;4.10;1.00;;;;;;4952480;29;20544;-63
2022/12/06 06:24:22;;;;;;;35.53;16.07;;;4.10;1.00;;;;;;4948171;29;20759;-65
2022/12/06 06:26:48;;;;;;;33.53;15.03;;;4.10;1.00;;;;;;4933453;29;20206;-65
2022/12/06 06:29:14;;;;;;;30.60;14.53;;;4.20;1.00;;;;;;4934298;29;20522;-64
2022/12/06 06:31:40;;;;;;;33.53;15.37;;;4.10;1.00;;;;;;4934246;29;21212;-64
2022/12/06 06:34:05;;;;;;;52.33;16.90;;;4.10;1.00;;;;;;4949864;29;20600;-65
2022/12/06 06:36:31;;;;;;;41.63;16.87;;;4.10;1.00;;;;;;4952433;29;20202;-66
2022/12/06 06:38:57;;;;;;;41.43;17.23;;;4.10;1.00;;;;;;4960155;29;20171;-66
2022/12/06 06:41:23;;;;;;;58.63;19.20;;;4.20;1.00;;;;;;4963153;28;20186;-66
2022/12/06 06:43:49;;;;;;;36.63;17.43;;;4.10;1.00;;;;;;4961813;28;20477;-67
2022/12/06 06:46:15;;;;;;;31.53;16.10;;;4.10;1.00;;;;;;4960610;29;20269;-66
2022/12/06 06:48:41;;;;;;;38.87;11.50;;;4.20;1.00;;;;;;4959202;28;20178;-66
2022/12/06 06:51:12;;;;;;;44.87;19.27;;;5.00;1.00;;;;;;4956223;28;20417;-65
2022/12/06 06:53:38;;;;;;;54.33;19.00;;;5.30;1.00;;;;;;4951083;28;20545;-62
2022/12/06 06:56:05;;;;;;;63.40;19.17;;;4.80;1.00;;;;;;4949658;28;20485;-65
2022/12/06 06:58:31;;;;;;;91.47;26.90;;;4.60;23.00;;;;;;4948040;28;20452;-65
2022/12/06 07:00:58;;;;;;;57.40;19.83;;;4.40;99.90;;;;;;4932928;29;20463;-64
2022/12/06 07:03:25;;;;;;;116.83;24.10;;;4.30;1.00;;;;;;4946928;28;20233;-66
2022/12/06 07:05:59;;;;;;;44.30;19.67;;;4.30;1.00;;;;;;4948015;28;20555;-65
2022/12/06 07:08:27;;;;;;;48.17;21.20;;;4.30;1.00;;;;;;4957855;28;20505;-64
2022/12/06 07:10:53;;;;;;;41.20;19.20;;;4.30;1.00;;;;;;4943446;28;20931;-65
2022/12/06 07:13:21;;;;;;;60.40;20.87;;;4.30;1.00;;;;;;4946785;29;20530;-66
2022/12/06 07:15:47;;;;;;;67.87;21.03;;;4.30;1.00;;;;;;4950727;29;20505;-64
2022/12/06 07:18:14;;;;;;;40.07;19.83;;;4.40;1.00;;;;;;4944769;28;20415;-65
2022/12/06 07:20:40;;;;;;;43.90;18.80;;;4.30;1.00;;;;;;4936103;29;20480;-66
2022/12/06 07:23:06;;;;;;;45.40;20.23;;;4.30;1.00;;;;;;4936976;29;20814;-65
2022/12/06 07:25:32;;;;;;;40.13;16.20;;;4.30;1.00;;;;;;4939571;29;20199;-64
2022/12/06 07:27:58;;;;;;;33.00;16.17;;;4.40;1.00;;;;;;4936935;29;20213;-63
2022/12/06 07:30:23;;;;;;;29.10;14.90;;;4.20;1.00;;;;;;4944949;29;20450;-67
2022/12/06 07:32:49;;;;;;;54.73;17.93;;;4.20;1.00;;;;;;4944726;29;20364;-64
2022/12/06 07:35:15;;;;;;;51.13;15.50;;;4.20;1.00;;;;;;4950136;28;20206;-64
2022/12/06 07:37:44;;;;;;;29.10;14.67;;;4.30;1.00;;;;;;4947636;28;20236;-66
2022/12/06 07:40:11;;;;;;;45.73;18.50;;;4.30;99.90;;;;;;4937480;29;20194;-67
2022/12/06 07:45:21;;;;;;;49.03;16.03;;;4.30;99.90;;;;;;4936399;29;20501;-66
2022/12/06 07:47:47;;;;;;;39.40;14.97;;;4.30;99.90;;;;;;4946762;28;20457;-66
2022/12/06 07:50:16;;;;;;;23.30;13.30;;;4.40;99.90;;;;;;4941762;29;20198;-66
2022/12/06 07:52:42;;;;;;;30.27;13.83;;;4.30;13.00;;;;;;4953096;29;20193;-65
2022/12/06 07:55:09;;;;;;;24.83;14.37;;;4.20;99.90;;;;;;4936615;28;20423;-65
2022/12/06 07:57:35;;;;;;;25.47;13.87;;;4.20;99.90;;;;;;4936824;29;20418;-64
2022/12/06 08:00:03;;;;;;;34.73;15.43;;;4.30;99.90;;;;;;4935989;29;20411;-64
2022/12/06 08:02:29;;;;;;;24.93;14.77;;;4.30;99.90;;;;;;4952712;29;20671;-65
2022/12/06 08:04:54;;;;;;;24.90;14.40;;;4.30;1.00;;;;;;4955427;28;20417;-64
2022/12/06 08:07:22;;;;;;;27.30;15.43;;;4.40;99.90;;;;;;4955247;29;20181;-65
2022/12/06 08:09:49;;;;;;;25.77;14.30;;;4.40;99.90;;;;;;4954621;28;20178;-63
2022/12/06 08:12:14;;;;;;;24.33;14.40;;;4.50;99.90;;;;;;4954728;28;20410;-65
2022/12/06 08:14:40;;;;;;;27.03;14.40;;;4.50;99.90;;;;;;4955384;29;20925;-63
2022/12/06 08:17:06;;;;;;;28.80;14.97;;;4.50;99.90;;;;;;4955762;29;20620;-65
2022/12/06 08:19:32;;;;;;;24.30;15.43;;;4.50;99.90;;;;;;4953648;29;20273;-66
2022/12/06 08:21:57;;;;;;;25.40;16.77;;;4.50;99.90;;;;;;4954319;29;20520;-67
2022/12/06 08:24:23;;;;;;;25.70;16.10;;;4.50;99.90;;;;;;4954841;29;20421;-65
2022/12/06 08:26:51;;;;;;;46.03;19.90;;;4.50;99.90;;;;;;4953956;29;20225;-65
2022/12/06 08:29:17;;;;;;;37.23;17.17;;;4.50;99.90;;;;;;4954230;28;20623;-63
2022/12/06 08:31:44;;;;;;;43.73;18.37;;;4.60;99.90;;;;;;4953680;28;20428;-66
2022/12/06 08:34:11;;;;;;;43.40;16.10;;;4.50;99.90;;;;;;4937505;28;20454;-66
2022/12/06 08:36:38;;;;;;;31.57;15.73;;;4.50;99.90;;;;;;4935511;29;20468;-66
2022/12/06 08:39:04;;;;;;;54.13;21.03;;;4.50;99.90;;;;;;4935305;29;20415;-64
2022/12/06 08:44:15;;;;;;;54.10;18.50;;;4.50;99.90;;;;;;4935641;29;20450;-66
2022/12/06 08:46:41;;;;;;;51.57;19.83;;;4.50;99.90;;;;;;4989665;23;20578;-64
2022/12/06 08:49:07;;;;;;;37.00;18.37;;;4.60;1.00;;;;;;4992150;28;20393;-65
2022/12/06 08:51:34;;;;;;;54.23;21.33;;;4.60;99.90;;;;;;4991360;28;20482;-63
2022/12/06 08:54:00;;;;;;;43.10;20.57;;;4.60;99.90;;;;;;4991953;28;21057;-65
2022/12/06 08:56:26;;;;;;;37.23;17.67;;;4.60;99.90;;;;;;4991685;28;20545;-63
2022/12/06 08:58:53;;;;;;;35.80;18.50;;;4.70;99.90;;;;;;4991827;28;20209;-63
2022/12/06 09:01:21;;;;;;;47.00;23.93;;;4.60;99.90;;;;;;4991399;28;20624;-64
2022/12/06 09:03:47;;;;;;;43.70;21.30;;;4.70;99.90;;;;;;4991602;28;20594;-63
2022/12/06 09:06:13;;;;;;;32.90;19.40;;;4.80;1.00;;;;;;4991753;28;20999;-63
2022/12/06 09:08:39;;;;;;;41.33;19.57;;;4.70;1.00;;;;;;4991845;28;20184;-63
2022/12/06 09:11:07;;;;;;;35.80;19.47;;;4.60;99.90;;;;;;4990521;28;20924;-64
2022/12/06 09:13:37;;;;;;;49.93;19.50;;;4.60;99.90;;;;;;4991691;28;20412;-64
2022/12/06 09:16:12;;;;;;;32.80;17.90;;;4.70;99.90;;;;;;4991412;28;20456;-63
2022/12/06 09:18:37;;;;;;;29.50;16.53;;;4.70;99.90;;;;;;4991775;28;21229;-63
2022/12/06 09:21:08;;;;;;;31.60;17.53;;;4.70;99.90;;;;;;4990874;28;20503;-63
2022/12/06 09:23:35;;;;;;;35.37;16.97;;;4.70;99.90;;;;;;4991524;28;20996;-64
2022/12/06 09:26:01;;;;;;;26.00;16.63;;;4.80;99.90;;;;;;4990809;28;20594;-63
2022/12/06 09:28:28;;;;;;;23.73;15.67;;;4.80;97.00;;;;;;4991927;28;20415;-63
2022/12/06 09:30:54;;;;;;;29.60;17.07;;;4.80;64.10;;;;;;4990319;28;20419;-63
2022/12/06 09:33:21;;;;;;;31.27;17.93;;;4.90;1.00;;;;;;4991304;28;20873;-64
2022/12/06 09:35:49;;;;;;;41.53;18.97;;;5.00;1.00;;;;;;4991451;28;20646;-64
2022/12/06 09:38:15;;;;;;;38.70;17.60;;;5.00;1.00;;;;;;4991514;28;20404;-64
2022/12/06 09:40:52;;;;;;;27.63;16.57;;;5.00;1.00;;;;;;4989426;28;20773;-62
2022/12/06 09:43:49;;;;;;;30.07;17.23;;;5.10;1.00;;;;;;4990908;28;20395;-63
2022/12/06 09:46:28;;;;;;;41.43;17.80;;;5.00;1.00;;;;;;4991272;28;20454;-63
2022/12/06 09:49:06;;;;;;;25.90;16.00;;;4.90;1.00;;;;;;4991563;28;20463;-64
2022/12/06 09:51:38;;;;;;;52.40;17.47;;;4.70;1.00;;;;;;4990458;28;20411;-64
2022/12/06 09:54:17;;;;;;;36.77;18.87;;;4.80;1.00;;;;;;4991152;28;20431;-63
2022/12/06 09:57:21;;;;;;;34.87;17.23;;;4.90;99.90;;;;;;4990995;28;20534;-63
2022/12/06 10:00:05;;;;;;;32.27;16.03;;;5.00;99.90;;;;;;4967821;28;20894;-63
2022/12/06 10:03:08;;;;;;;35.33;17.30;;;4.90;99.90;;;;;;4991235;28;20412;-64
2022/12/06 10:05:56;;;;;;;25.17;16.20;;;5.00;99.90;;;;;;4989436;28;20420;-63
2022/12/06 10:08:41;;;;;;;28.97;17.90;;;5.00;99.90;;;;;;4991852;28;20431;-63
2022/12/06 10:11:34;;;;;;;22.17;15.73;;;5.10;99.90;;;;;;4990154;28;20430;-63
2022/12/06 10:14:41;;;;;;;44.77;17.70;;;5.00;99.90;;;;;;4990626;28;20757;-63
2022/12/06 10:17:21;;;;;;;44.40;16.83;;;4.90;1.00;;;;;;4991133;28;20474;-64
2022/12/06 10:20:13;;;;;;;74.90;22.20;;;5.00;1.00;;;;;;4991091;28;20438;-65
2022/12/06 10:23:01;;;;;;;43.13;16.60;;;5.20;99.90;;;;;;4988716;28;20764;-65
2022/12/06 10:25:51;;;;;;;47.07;16.90;;;5.10;1.00;;;;;;4990039;28;20398;-61
2022/12/06 10:29:01;;;;;;;104.40;22.13;;;4.90;99.90;;;;;;4990379;28;20459;-61
2022/12/06 10:31:49;;;;;;;65.33;17.83;;;5.00;99.90;;;;;;4929500;29;20497;-63
2022/12/06 10:34:53;;;;;;;39.83;17.03;;;5.00;99.90;;;;;;4990635;28;20423;-63
2022/12/06 10:37:22;;;;;;;26.07;17.73;;;5.00;1.00;;;;;;4929873;29;20478;-62
2022/12/06 10:40:12;;;;;;;30.03;17.10;;;5.10;1.00;;;;;;4929872;29;20493;-63
2022/12/06 10:42:45;;;;;;;233.90;33.17;;;5.10;1.00;;;;;;4929039;29;20439;-63
2022/12/06 10:48:33;;;;;;;51.77;21.27;;;5.20;1.00;;;;;;4929812;29;20437;-62
2022/12/06 10:51:11;;;;;;;35.03;17.63;;;5.20;1.00;;;;;;4928710;29;20495;-64
2022/12/06 10:53:47;;;;;;;35.20;17.07;;;5.20;1.00;;;;;;4928913;29;20415;-63
2022/12/06 10:56:38;;;;;;;29.00;16.53;;;5.20;99.90;;;;;;4929623;29;21007;-64
2022/12/06 10:59:16;;;;;;;33.67;16.57;;;5.20;1.00;;;;;;4913835;29;20524;-62
2022/12/06 11:01:43;;;;;;;37.90;17.87;;;5.30;99.90;;;;;;4928974;29;20469;-64
2022/12/06 11:04:46;;;;;;;26.97;15.90;;;5.30;99.90;;;;;;4929446;29;20986;-64
2022/12/06 11:07:26;;;;;;;50.00;19.03;;;5.40;99.90;;;;;;4846666;29;20619;-64
2022/12/06 11:09:55;;;;;;;41.70;19.90;;;5.50;1.00;;;;;;4979455;28;20514;-63
2022/12/06 11:12:24;;;;;;;28.87;16.80;;;5.40;1.00;;;;;;4989693;28;20423;-63
2022/12/06 11:14:57;;;;;;;22.50;15.23;;;5.40;1.00;;;;;;4989298;28;20511;-64
2022/12/06 11:17:30;;;;;;;58.57;16.20;;;5.40;1.00;;;;;;4989791;28;20472;-63
2022/12/06 11:20:17;;;;;;;29.87;16.20;;;5.40;1.00;;;;;;4989809;28;20498;-64
2022/12/06 11:23:24;;;;;;;36.07;16.03;;;5.50;99.90;;;;;;4989535;28;20404;-64
2022/12/06 11:26:04;;;;;;;34.50;15.50;;;5.50;99.90;;;;;;4986455;28;20448;-64
2022/12/06 11:28:36;;;;;;;47.53;18.10;;;5.50;99.90;;;;;;4990090;28;20402;-63
2022/12/06 11:31:11;;;;;;;39.10;17.27;;;5.60;99.90;;;;;;4988918;28;20495;-63
2022/12/06 11:33:37;;;;;;;55.83;18.07;;;5.60;99.90;;;;;;4989953;28;20411;-63
2022/12/06 11:36:06;;;;;;;41.37;19.07;;;5.60;30.20;;;;;;4989260;28;20520;-63
2022/12/06 11:38:33;;;;;;;41.57;16.93;;;5.60;1.00;;;;;;4970954;28;20504;-64
2022/12/06 11:41:01;;;;;;;46.67;18.50;;;5.50;49.60;;;;;;4969284;28;20414;-63
2022/12/06 11:43:33;;;;;;;23.63;17.07;;;5.60;99.90;;;;;;4970426;28;20416;-63
2022/12/06 11:45:59;;;;;;;27.27;16.90;;;5.60;99.90;;;;;;4970394;28;20452;-63
2022/12/06 11:48:29;;;;;;;30.00;18.03;;;5.60;1.00;;;;;;4970317;28;20500;-62
2022/12/06 11:50:55;;;;;;;36.20;17.93;;;5.60;1.00;;;;;;4969560;28;20848;-63
2022/12/06 11:53:43;;;;;;;39.60;20.20;;;5.60;1.00;;;;;;4970475;28;20413;-64
2022/12/06 11:56:20;;;;;;;34.33;17.43;;;5.70;99.90;;;;;;4969203;28;20209;-64
2022/12/06 11:59:05;;;;;;;32.40;18.13;;;5.70;99.90;;;;;;4970401;28;21044;-64
2022/12/06 12:01:59;;;;;;;37.50;16.53;;;5.70;54.00;;;;;;4969550;28;20417;-64
2022/12/06 12:04:30;;;;;;;18.80;14.60;;;5.70;25.80;;;;;;4969851;28;20420;-64
2022/12/06 12:07:17;;;;;;;24.80;15.73;;;5.60;1.00;;;;;;4973624;28;20452;-63
2022/12/06 12:10:00;;;;;;;23.30;14.30;;;5.70;99.90;;;;;;4973195;28;20405;-64
2022/12/06 12:15:23;;;;;;;22.57;15.20;;;5.60;99.90;;;;;;4973754;28;20408;-61
2022/12/06 12:17:52;;;;;;;25.53;16.50;;;5.70;99.90;;;;;;4974225;28;20414;-61
2022/12/06 12:20:22;;;;;;;30.27;16.17;;;5.70;72.70;;;;;;4973516;28;20187;-61
2022/12/06 12:22:58;;;;;;;36.53;16.40;;;5.70;99.90;;;;;;4984171;28;20435;-61
2022/12/06 12:25:30;;;;;;;49.33;18.87;;;5.70;64.50;;;;;;4988096;28;20441;-61
2022/12/06 12:28:20;;;;;;;27.27;14.03;;;5.70;1.00;;;;;;4992484;28;20418;-61
2022/12/06 12:30:57;;;;;;;32.47;16.53;;;5.90;11.90;;;;;;4992162;28;20404;-61
2022/12/06 12:33:27;;;;;;;26.07;16.97;;;6.30;1.00;;;;;;4991783;28;20432;-61
2022/12/06 12:36:20;;;;;;;31.87;16.33;;;6.10;38.60;;;;;;4987750;28;20551;-61
2022/12/06 12:38:59;;;;;;;23.57;15.97;;;6.00;1.00;;;;;;4982996;28;20431;-59
2022/12/06 12:41:25;;;;;;;20.70;15.07;;;5.90;19.10;;;;;;4992471;28;20749;-62
2022/12/06 12:44:00;;;;;;;22.90;16.63;;;5.80;36.80;;;;;;4993239;28;20413;-62
2022/12/06 12:46:27;;;;;;;22.80;14.87;;;5.80;99.90;;;;;;4989229;28;20220;-59
2022/12/06 12:48:54;;;;;;;28.13;16.10;;;5.70;99.90;;;;;;4991634;28;20435;-61
2022/12/06 12:51:32;;;;;;;32.53;15.97;;;5.80;99.90;;;;;;4992471;28;20519;-61
2022/12/06 12:54:04;;;;;;;86.80;24.50;;;5.80;99.90;;;;;;4992701;28;20807;-58
2022/12/06 12:56:35;;;;;;;20.40;14.17;;;5.90;99.90;;;;;;4988772;28;20595;-57
2022/12/06 12:59:11;;;;;;;58.57;17.50;;;5.80;99.90;;;;;;4989645;28;20439;-60
2022/12/06 13:01:45;;;;;;;122.53;22.70;;;5.80;99.90;;;;;;4991415;28;20423;-57
2022/12/06 13:04:32;;;;;;;105.27;21.17;;;5.90;99.90;;;;;;4991641;28;20603;-58
2022/12/06 13:07:06;;;;;;;151.20;26.50;;;5.90;99.90;;;;;;4992812;28;20442;-57
2022/12/06 13:10:00;;;;;;;175.53;28.97;;;6.00;99.90;;;;;;4992687;28;20415;-59
2022/12/06 13:12:38;;;;;;;60.33;19.40;;;6.00;99.90;;;;;;4991726;28;20516;-57
2022/12/06 13:15:13;;;;;;;137.90;28.30;;;6.00;99.90;;;;;;4992170;28;21043;-62
2022/12/06 13:17:42;;;;;;;51.80;20.17;;;6.00;99.90;;;;;;4992326;28;20467;-59
2022/12/06 13:20:22;;;;;;;60.07;18.53;;;6.10;99.90;;;;;;4989394;28;20478;-62
2022/12/06 13:22:51;;;;;;;23.43;13.10;;;6.10;99.90;;;;;;4991036;28;20448;-60
2022/12/06 13:25:17;;;;;;;18.97;13.07;;;6.00;99.90;;;;;;4972760;28;20898;-62
2022/12/06 13:27:47;;;;;;;18.40;12.60;;;6.00;99.90;;;;;;4980749;28;20412;-62
2022/12/06 13:30:25;;;;;;;21.53;13.40;;;5.90;99.90;;;;;;4991986;28;20184;-61
2022/12/06 13:32:54;;;;;;;26.67;13.50;;;5.90;99.90;;;;;;4991961;28;20427;-60